sensor_id;sensor_type;location;lat;lon;timestamp;pressure;altitude;pressure_sealevel;temperature;humidity
36260;BME280;22296;50.824;5.644;2023-05-08T00:00:00;101109.03;;;20.22;61.11
36260;BME280;22296;50.824;5.644;2023-05-08T00:02:30;101109.03;;;20.22;60.96
36260;BME280;22296;50.824;5.644;2023-05-08T00:04:57;101107.41;;;20.21;60.76
36260;BME280;22296;50.824;5.644;2023-05-08T00:07:25;101109.88;;;20.22;60.81
36260;BME280;22296;50.824;5.644;2023-05-08T00:09:51;101106.56;;;20.20;60.91
36260;BME280;22296;50.824;5.644;2023-05-08T00:12:18;101103.91;;;20.24;60.63
36260;BME280;22296;50.824;5.644;2023-05-08T00:14:45;101104.41;;;20.26;60.80
36260;BME280;22296;50.824;5.644;2023-05-08T00:17:12;101107.22;;;20.26;61.01
36260;BME280;22296;50.824;5.644;2023-05-08T00:19:39;101098.28;;;20.24;60.77
36260;BME280;22296;50.824;5.644;2023-05-08T00:22:05;101097.84;;;20.22;60.97
36260;BME280;22296;50.824;5.644;2023-05-08T00:24:32;101098.28;;;20.24;61.02
36260;BME280;22296;50.824;5.644;2023-05-08T00:26:59;101099.47;;;20.23;61.01
36260;BME280;22296;50.824;5.644;2023-05-08T00:29:26;101107.41;;;20.21;61.06
36260;BME280;22296;50.824;5.644;2023-05-08T00:31:53;101102.97;;;20.20;61.10
36260;BME280;22296;50.824;5.644;2023-05-08T00:34:20;101113.00;;;20.21;60.99
36260;BME280;22296;50.824;5.644;2023-05-08T00:36:47;101110.88;;;20.18;60.84
36260;BME280;22296;50.824;5.644;2023-05-08T00:39:14;101114.19;;;20.20;61.05
36260;BME280;22296;50.824;5.644;2023-05-08T00:41:41;101112.53;;;20.19;61.08
36260;BME280;22296;50.824;5.644;2023-05-08T00:44:08;101112.06;;;20.17;61.38
36260;BME280;22296;50.824;5.644;2023-05-08T00:46:36;101116.84;;;20.16;61.18
36260;BME280;22296;50.824;5.644;2023-05-08T00:49:04;101116.03;;;20.16;61.06
36260;BME280;22296;50.824;5.644;2023-05-08T00:51:31;101115.22;;;20.15;61.13
36260;BME280;22296;50.824;5.644;2023-05-08T00:53:59;101118.00;;;20.15;61.24
36260;BME280;22296;50.824;5.644;2023-05-08T00:56:27;101117.19;;;20.15;61.20
36260;BME280;22296;50.824;5.644;2023-05-08T00:58:55;101114.38;;;20.15;61.17
36260;BME280;22296;50.824;5.644;2023-05-08T01:01:22;101108.00;;;20.14;61.05
36260;BME280;22296;50.824;5.644;2023-05-08T01:03:49;101111.13;;;20.13;61.15
36260;BME280;22296;50.824;5.644;2023-05-08T01:06:16;101116.72;;;20.13;60.95
36260;BME280;22296;50.824;5.644;2023-05-08T01:08:44;101105.53;;;20.13;61.18
36260;BME280;22296;50.824;5.644;2023-05-08T01:11:32;101113.47;;;20.11;61.14
36260;BME280;22296;50.824;5.644;2023-05-08T01:32:45;101119.75;;;20.08;61.29
36260;BME280;22296;50.824;5.644;2023-05-08T01:35:26;101123.03;;;20.10;61.11
36260;BME280;22296;50.824;5.644;2023-05-08T01:38:06;101125.38;;;20.08;61.14
36260;BME280;22296;50.824;5.644;2023-05-08T01:43:28;101122.56;;;20.08;61.20
36260;BME280;22296;50.824;5.644;2023-05-08T01:45:58;101122.56;;;20.08;60.94
36260;BME280;22296;50.824;5.644;2023-05-08T01:48:32;101123.72;;;20.07;61.14
36260;BME280;22296;50.824;5.644;2023-05-08T01:51:13;101120.91;;;20.07;61.28
36260;BME280;22296;50.824;5.644;2023-05-08T01:53:47;101126.19;;;20.08;61.17
36260;BME280;22296;50.824;5.644;2023-05-08T01:56:20;101117.78;;;20.08;61.04
36260;BME280;22296;50.824;5.644;2023-05-08T01:58:49;101128.63;;;20.10;61.04
36260;BME280;22296;50.824;5.644;2023-05-08T02:01:17;101120.91;;;20.07;61.29
36260;BME280;22296;50.824;5.644;2023-05-08T02:03:47;101121.41;;;20.09;61.04
36260;BME280;22296;50.824;5.644;2023-05-08T02:06:18;101128.16;;;20.08;61.02
36260;BME280;22296;50.824;5.644;2023-05-08T02:08:46;101128.63;;;20.10;61.00
36260;BME280;22296;50.824;5.644;2023-05-08T02:11:15;101125.38;;;20.08;60.97
36260;BME280;22296;50.824;5.644;2023-05-08T02:13:45;101120.09;;;20.06;61.16
36260;BME280;22296;50.824;5.644;2023-05-08T02:16:14;101120.09;;;20.06;61.32
36260;BME280;22296;50.824;5.644;2023-05-08T02:18:46;101120.47;;;20.05;61.40
36260;BME280;22296;50.824;5.644;2023-05-08T02:21:14;101118.00;;;20.03;61.19
36260;BME280;22296;50.824;5.644;2023-05-08T02:23:42;101128.50;;;20.06;61.18
36260;BME280;22296;50.824;5.644;2023-05-08T02:26:13;101126.06;;;20.05;61.00
36260;BME280;22296;50.824;5.644;2023-05-08T02:28:41;101122.91;;;20.06;60.88
36260;BME280;22296;50.824;5.644;2023-05-08T02:31:09;101117.28;;;20.06;61.18
36260;BME280;22296;50.824;5.644;2023-05-08T02:33:39;101122.09;;;20.06;61.26
36260;BME280;22296;50.824;5.644;2023-05-08T02:36:07;101131.66;;;20.05;61.17
36260;BME280;22296;50.824;5.644;2023-05-08T02:38:37;101131.66;;;20.05;61.07
36260;BME280;22296;50.824;5.644;2023-05-08T02:41:06;101128.03;;;20.04;61.16
36260;BME280;22296;50.824;5.644;2023-05-08T02:43:34;101137.59;;;20.03;61.59
36260;BME280;22296;50.824;5.644;2023-05-08T02:46:17;101128.41;;;20.03;61.29
36260;BME280;22296;50.824;5.644;2023-05-08T02:49:04;101129.56;;;20.02;61.30
36260;BME280;22296;50.824;5.644;2023-05-08T02:51:59;101131.53;;;20.01;61.11
36260;BME280;22296;50.824;5.644;2023-05-08T02:54:45;101127.91;;;20.01;61.28
36260;BME280;22296;50.824;5.644;2023-05-08T02:57:34;101125.09;;;20.01;61.37
36260;BME280;22296;50.824;5.644;2023-05-08T03:00:07;101129.09;;;20.00;61.25
36260;BME280;22296;50.824;5.644;2023-05-08T03:02:41;101126.75;;;20.02;61.17
36260;BME280;22296;50.824;5.644;2023-05-08T03:07:53;101127.44;;;19.99;61.30
36260;BME280;22296;50.824;5.644;2023-05-08T03:10:25;101126.63;;;19.98;61.50
36260;BME280;22296;50.824;5.644;2023-05-08T03:12:55;101115.41;;;19.98;61.28
36260;BME280;22296;50.824;5.644;2023-05-08T03:15:36;101123.00;;;19.98;61.32
36260;BME280;22296;50.824;5.644;2023-05-08T03:18:10;101120.19;;;19.98;61.28
36260;BME280;22296;50.824;5.644;2023-05-08T03:20:40;101119.41;;;19.97;61.21
36260;BME280;22296;50.824;5.644;2023-05-08T03:23:09;101125.81;;;19.98;61.14
36260;BME280;22296;50.824;5.644;2023-05-08T03:25:40;101125.47;;;19.99;61.49
36260;BME280;22296;50.824;5.644;2023-05-08T03:28:09;101125.81;;;19.98;61.13
36260;BME280;22296;50.824;5.644;2023-05-08T03:30:39;101131.41;;;19.98;61.23
36260;BME280;22296;50.824;5.644;2023-05-08T03:33:10;101134.19;;;19.98;61.28
36260;BME280;22296;50.824;5.644;2023-05-08T03:35:38;101132.59;;;19.97;61.45
36260;BME280;22296;50.824;5.644;2023-05-08T03:38:07;101140.97;;;19.97;61.24
36260;BME280;22296;50.824;5.644;2023-05-08T03:40:34;101133.41;;;19.97;61.40
36260;BME280;22296;50.824;5.644;2023-05-08T03:43:06;101129.78;;;19.97;61.44
36260;BME280;22296;50.824;5.644;2023-05-08T03:45:34;101123.00;;;19.98;61.30
36260;BME280;22296;50.824;5.644;2023-05-08T03:48:07;101125.81;;;19.98;61.16
36260;BME280;22296;50.824;5.644;2023-05-08T03:50:36;101125.81;;;19.98;61.26
36260;BME280;22296;50.824;5.644;2023-05-08T03:53:06;101126.28;;;20.00;61.12
36260;BME280;22296;50.824;5.644;2023-05-08T03:55:33;101125.81;;;19.98;61.27
36260;BME280;22296;50.824;5.644;2023-05-08T04:01:00;101120.56;;;19.96;61.37
36260;BME280;22296;50.824;5.644;2023-05-08T04:03:55;101125.00;;;19.97;61.29
36260;BME280;22296;50.824;5.644;2023-05-08T04:06:39;101124.19;;;19.97;61.34
36260;BME280;22296;50.824;5.644;2023-05-08T04:09:30;101132.09;;;19.95;61.19
36260;BME280;22296;50.824;5.644;2023-05-08T04:12:25;101129.09;;;20.00;61.11
36260;BME280;22296;50.824;5.644;2023-05-08T04:15:06;101132.00;;;20.03;61.13
36260;BME280;22296;50.824;5.644;2023-05-08T04:20:06;101134.19;;;19.98;61.39
36260;BME280;22296;50.824;5.644;2023-05-08T04:22:34;101125.34;;;19.96;61.27
36260;BME280;22296;50.824;5.644;2023-05-08T04:25:05;101134.44;;;19.92;61.63
36260;BME280;22296;50.824;5.644;2023-05-08T04:27:34;101140.72;;;19.89;61.57
36260;BME280;22296;50.824;5.644;2023-05-08T04:30:02;101133.50;;;19.88;61.41
36260;BME280;22296;50.824;5.644;2023-05-08T04:32:30;101128.69;;;19.89;61.46
36260;BME280;22296;50.824;5.644;2023-05-08T04:34:59;101133.84;;;19.87;61.66
36260;BME280;22296;50.824;5.644;2023-05-08T04:37:28;101135.81;;;19.86;61.62
36260;BME280;22296;50.824;5.644;2023-05-08T04:40:00;101137.47;;;19.87;61.56
36260;BME280;22296;50.824;5.644;2023-05-08T04:42:28;101147.00;;;19.86;61.55
36260;BME280;22296;50.824;5.644;2023-05-08T04:44:57;101145.38;;;19.85;61.34
36260;BME280;22296;50.824;5.644;2023-05-08T04:47:24;101151.78;;;19.86;61.52
36260;BME280;22296;50.824;5.644;2023-05-08T04:49:51;101144.56;;;19.85;61.55
36260;BME280;22296;50.824;5.644;2023-05-08T04:52:18;101143.75;;;19.84;61.70
36260;BME280;22296;50.824;5.644;2023-05-08T04:54:45;101146.09;;;19.82;61.56
36260;BME280;22296;50.824;5.644;2023-05-08T04:57:12;101146.09;;;19.82;61.45
36260;BME280;22296;50.824;5.644;2023-05-08T04:59:39;101147.69;;;19.83;61.52
36260;BME280;22296;50.824;5.644;2023-05-08T05:02:07;101151.69;;;19.82;61.61
36260;BME280;22296;50.824;5.644;2023-05-08T05:04:35;101149.34;;;19.84;61.56
36260;BME280;22296;50.824;5.644;2023-05-08T05:07:03;101143.28;;;19.82;61.17
36260;BME280;22296;50.824;5.644;2023-05-08T05:09:30;101151.69;;;19.82;61.44
36260;BME280;22296;50.824;5.644;2023-05-08T05:12:05;101154.81;;;19.81;61.22
36260;BME280;22296;50.824;5.644;2023-05-08T05:14:34;101149.22;;;19.81;61.29
36260;BME280;22296;50.824;5.644;2023-05-08T05:17:01;101164.03;;;19.81;61.38
36260;BME280;22296;50.824;5.644;2023-05-08T05:19:28;101168.47;;;19.82;61.32
36260;BME280;22296;50.824;5.644;2023-05-08T05:21:54;101185.25;;;19.82;61.49
36260;BME280;22296;50.824;5.644;2023-05-08T05:24:22;101171.59;;;19.81;61.30
36260;BME280;22296;50.824;5.644;2023-05-08T05:26:48;101175.22;;;19.81;61.07
36260;BME280;22296;50.824;5.644;2023-05-08T05:29:16;101183.97;;;19.80;61.34
36260;BME280;22296;50.824;5.644;2023-05-08T05:31:43;101181.97;;;19.80;61.32
36260;BME280;22296;50.824;5.644;2023-05-08T05:34:10;101181.97;;;19.80;61.21
36260;BME280;22296;50.824;5.644;2023-05-08T05:36:37;101182.78;;;19.81;61.21
36260;BME280;22296;50.824;5.644;2023-05-08T05:39:04;101185.13;;;19.79;61.08
36260;BME280;22296;50.824;5.644;2023-05-08T05:41:32;101192.38;;;19.80;61.26
36260;BME280;22296;50.824;5.644;2023-05-08T05:44:00;101191.56;;;19.79;61.45
36260;BME280;22296;50.824;5.644;2023-05-08T05:46:26;101191.56;;;19.79;61.31
36260;BME280;22296;50.824;5.644;2023-05-08T05:49:00;101194.34;;;19.79;61.09
36260;BME280;22296;50.824;5.644;2023-05-08T05:51:28;101195.50;;;19.78;61.27
36260;BME280;22296;50.824;5.644;2023-05-08T05:53:55;101199.94;;;19.79;61.42
36260;BME280;22296;50.824;5.644;2023-05-08T05:56:24;101199.94;;;19.79;61.37
36260;BME280;22296;50.824;5.644;2023-05-08T05:58:51;101198.31;;;19.78;61.30
36260;BME280;22296;50.824;5.644;2023-05-08T06:01:18;101198.66;;;19.77;61.14
36260;BME280;22296;50.824;5.644;2023-05-08T06:03:45;101199.44;;;19.77;61.09
36260;BME280;22296;50.824;5.644;2023-05-08T06:06:12;101202.25;;;19.77;61.26
36260;BME280;22296;50.824;5.644;2023-05-08T06:08:39;101204.38;;;19.80;61.39
36260;BME280;22296;50.824;5.644;2023-05-08T06:11:06;101202.75;;;19.79;61.08
36260;BME280;22296;50.824;5.644;2023-05-08T06:13:33;101203.91;;;19.78;61.28
36260;BME280;22296;50.824;5.644;2023-05-08T06:16:00;101207.53;;;19.79;61.45
36260;BME280;22296;50.824;5.644;2023-05-08T06:18:29;101206.69;;;19.78;61.00
36260;BME280;22296;50.824;5.644;2023-05-08T06:20:57;101211.16;;;19.79;61.30
36260;BME280;22296;50.824;5.644;2023-05-08T06:23:24;101213.13;;;19.79;60.90
36260;BME280;22296;50.824;5.644;2023-05-08T06:25:52;101212.28;;;19.78;61.13
36260;BME280;22296;50.824;5.644;2023-05-08T06:28:19;101217.91;;;19.78;61.27
36260;BME280;22296;50.824;5.644;2023-05-08T06:30:48;101219.03;;;19.77;61.16
36260;BME280;22296;50.824;5.644;2023-05-08T06:33:15;101218.72;;;19.79;60.99
36260;BME280;22296;50.824;5.644;2023-05-08T06:35:45;101217.91;;;19.78;61.21
36260;BME280;22296;50.824;5.644;2023-05-08T06:38:13;101221.84;;;19.77;61.26
36260;BME280;22296;50.824;5.644;2023-05-08T06:40:41;101221.84;;;19.77;61.17
36260;BME280;22296;50.824;5.644;2023-05-08T06:43:09;101226.28;;;19.78;61.04
36260;BME280;22296;50.824;5.644;2023-05-08T06:45:37;101222.66;;;19.78;61.44
36260;BME280;22296;50.824;5.644;2023-05-08T06:48:04;101232.25;;;19.77;61.21
36260;BME280;22296;50.824;5.644;2023-05-08T06:50:31;101233.03;;;19.77;61.12
36260;BME280;22296;50.824;5.644;2023-05-08T06:52:58;101232.25;;;19.77;61.21
36260;BME280;22296;50.824;5.644;2023-05-08T06:55:25;101249.84;;;19.77;61.15
36260;BME280;22296;50.824;5.644;2023-05-08T06:57:52;101244.22;;;19.77;61.10
36260;BME280;22296;50.824;5.644;2023-05-08T07:00:19;101237.03;;;19.76;61.20
36260;BME280;22296;50.824;5.644;2023-05-08T07:02:46;101237.84;;;19.77;61.21
36260;BME280;22296;50.824;5.644;2023-05-08T07:05:12;101249.84;;;19.77;61.33
36260;BME280;22296;50.824;5.644;2023-05-08T07:07:40;101249.38;;;19.75;61.05
36260;BME280;22296;50.824;5.644;2023-05-08T07:10:08;101242.63;;;19.76;61.19
36260;BME280;22296;50.824;5.644;2023-05-08T07:12:35;101248.22;;;19.76;61.30
36260;BME280;22296;50.824;5.644;2023-05-08T07:15:03;101253.00;;;19.76;61.01
36260;BME280;22296;50.824;5.644;2023-05-08T07:17:49;101253.81;;;19.76;61.39
36260;BME280;22296;50.824;5.644;2023-05-08T07:20:16;101250.66;;;19.78;61.10
36260;BME280;22296;50.824;5.644;2023-05-08T07:22:43;101248.22;;;19.76;61.26
36260;BME280;22296;50.824;5.644;2023-05-08T07:25:10;101258.91;;;19.74;61.37
36260;BME280;22296;50.824;5.644;2023-05-08T07:27:37;101260.91;;;19.74;61.42
36260;BME280;22296;50.824;5.644;2023-05-08T07:30:04;101258.91;;;19.74;61.39
36260;BME280;22296;50.824;5.644;2023-05-08T07:32:31;101260.94;;;19.86;62.38
36260;BME280;22296;50.824;5.644;2023-05-08T07:34:58;101265.59;;;20.03;61.86
36260;BME280;22296;50.824;5.644;2023-05-08T07:37:25;101266.44;;;20.15;62.26
36260;BME280;22296;50.824;5.644;2023-05-08T07:39:52;101270.66;;;20.21;62.35
36260;BME280;22296;50.824;5.644;2023-05-08T07:42:18;101260.09;;;20.27;61.17
36260;BME280;22296;50.824;5.644;2023-05-08T07:44:45;101270.38;;;20.35;61.14
36260;BME280;22296;50.824;5.644;2023-05-08T07:47:20;101260.13;;;20.39;60.90
36260;BME280;22296;50.824;5.644;2023-05-08T07:49:47;101260.13;;;20.39;60.80
36260;BME280;22296;50.824;5.644;2023-05-08T07:52:14;101264.53;;;20.28;61.07
36260;BME280;22296;50.824;5.644;2023-05-08T07:54:41;101266.41;;;20.36;60.94
36260;BME280;22296;50.824;5.644;2023-05-08T07:57:08;101257.91;;;20.44;60.38
36260;BME280;22296;50.824;5.644;2023-05-08T07:59:34;101251.75;;;20.51;60.45
36260;BME280;22296;50.824;5.644;2023-05-08T08:02:01;101257.47;;;20.55;60.32
36260;BME280;22296;50.824;5.644;2023-05-08T08:04:28;101250.34;;;20.57;60.33
36260;BME280;22296;50.824;5.644;2023-05-08T08:06:55;101247.66;;;20.61;60.11
36260;BME280;22296;50.824;5.644;2023-05-08T08:09:23;101248.47;;;20.61;59.99
36260;BME280;22296;50.824;5.644;2023-05-08T08:11:49;101250.59;;;20.64;60.19
36260;BME280;22296;50.824;5.644;2023-05-08T08:14:16;101251.78;;;20.63;59.99
36260;BME280;22296;50.824;5.644;2023-05-08T08:16:43;101253.88;;;20.66;59.68
36260;BME280;22296;50.824;5.644;2023-05-08T08:19:10;101249.44;;;20.65;60.03
36260;BME280;22296;50.824;5.644;2023-05-08T08:21:43;101249.88;;;20.55;60.09
36260;BME280;22296;50.824;5.644;2023-05-08T08:24:11;101246.88;;;20.60;60.00
36260;BME280;22296;50.824;5.644;2023-05-08T08:26:37;101244.97;;;20.64;60.02
36260;BME280;22296;50.824;5.644;2023-05-08T08:29:04;101247.53;;;20.69;59.91
36260;BME280;22296;50.824;5.644;2023-05-08T08:31:31;101246.97;;;20.76;59.86
36260;BME280;22296;50.824;5.644;2023-05-08T08:33:58;101244.28;;;20.67;60.26
36260;BME280;22296;50.824;5.644;2023-05-08T08:36:25;101242.88;;;20.73;59.91
36260;BME280;22296;50.824;5.644;2023-05-08T08:38:52;101240.31;;;20.92;59.19
36260;BME280;22296;50.824;5.644;2023-05-08T08:41:19;101241.72;;;20.74;59.83
36260;BME280;22296;50.824;5.644;2023-05-08T08:43:46;101246.63;;;20.65;59.83
36260;BME280;22296;50.824;5.644;2023-05-08T08:46:13;101249.66;;;20.60;59.77
36260;BME280;22296;50.824;5.644;2023-05-08T08:48:43;101244.75;;;20.57;59.94
36260;BME280;22296;50.824;5.644;2023-05-08T08:51:23;101249.53;;;20.57;59.80
36260;BME280;22296;50.824;5.644;2023-05-08T08:53:58;101247.88;;;20.56;59.92
36260;BME280;22296;50.824;5.644;2023-05-08T08:56:30;101245.44;;;20.54;59.79
36260;BME280;22296;50.824;5.644;2023-05-08T08:58:59;101247.75;;;20.52;59.72
36260;BME280;22296;50.824;5.644;2023-05-08T09:01:27;101257.34;;;20.51;59.88
36260;BME280;22296;50.824;5.644;2023-05-08T09:03:57;101242.84;;;20.49;60.03
36260;BME280;22296;50.824;5.644;2023-05-08T09:06:25;101246.84;;;20.48;59.95
36260;BME280;22296;50.824;5.644;2023-05-08T09:08:57;101244.38;;;20.46;59.93
36260;BME280;22296;50.824;5.644;2023-05-08T09:11:24;101246.38;;;20.46;59.76
36260;BME280;22296;50.824;5.644;2023-05-08T09:13:51;101241.09;;;20.44;59.78
36260;BME280;22296;50.824;5.644;2023-05-08T09:16:18;101247.53;;;20.45;59.91
36260;BME280;22296;50.824;5.644;2023-05-08T09:18:45;101247.06;;;20.43;60.03
36260;BME280;22296;50.824;5.644;2023-05-08T09:21:12;101249.03;;;20.42;59.83
36260;BME280;22296;50.824;5.644;2023-05-08T09:26:39;101248.91;;;20.39;60.02
36260;BME280;22296;50.824;5.644;2023-05-08T09:29:17;101246.13;;;20.39;60.06
36260;BME280;22296;50.824;5.644;2023-05-08T09:31:48;101248.09;;;20.38;59.99
36260;BME280;22296;50.824;5.644;2023-05-08T09:39:35;101248.78;;;20.35;60.39
36260;BME280;22296;50.824;5.644;2023-05-08T09:42:03;101245.66;;;20.37;60.18
36260;BME280;22296;50.824;5.644;2023-05-08T09:44:44;101254.06;;;20.37;60.08
36260;BME280;22296;50.824;5.644;2023-05-08T09:47:15;101260.81;;;20.36;60.22
36260;BME280;22296;50.824;5.644;2023-05-08T09:50:05;101258.00;;;20.36;60.21
36260;BME280;22296;50.824;5.644;2023-05-08T09:52:34;101252.78;;;20.34;60.11
36260;BME280;22296;50.824;5.644;2023-05-08T09:55:08;101253.56;;;20.35;60.30
36260;BME280;22296;50.824;5.644;2023-05-08T09:57:37;101254.38;;;20.35;59.99
36260;BME280;22296;50.824;5.644;2023-05-08T10:02:33;101258.84;;;20.36;60.14
36260;BME280;22296;50.824;5.644;2023-05-08T10:05:00;101259.16;;;20.35;60.01
36260;BME280;22296;50.824;5.644;2023-05-08T10:07:33;101266.09;;;20.37;60.05
36260;BME280;22296;50.824;5.644;2023-05-08T10:10:02;101258.47;;;20.38;60.11
36260;BME280;22296;50.824;5.644;2023-05-08T10:12:29;101250.44;;;20.36;59.97
36260;BME280;22296;50.824;5.644;2023-05-08T10:14:56;101251.25;;;20.37;60.14
36260;BME280;22296;50.824;5.644;2023-05-08T10:17:44;101259.66;;;20.37;60.21
36260;BME280;22296;50.824;5.644;2023-05-08T10:20:14;101254.78;;;20.46;60.07
36260;BME280;22296;50.824;5.644;2023-05-08T10:22:47;101249.75;;;20.64;60.09
36260;BME280;22296;50.824;5.644;2023-05-08T10:25:16;101250.00;;;20.71;59.65
36260;BME280;22296;50.824;5.644;2023-05-08T10:28:00;101252.72;;;20.79;59.53
36260;BME280;22296;50.824;5.644;2023-05-08T10:30:33;101246.41;;;20.82;59.28
36260;BME280;22296;50.824;5.644;2023-05-08T10:33:05;101250.25;;;20.78;59.40
36260;BME280;22296;50.824;5.644;2023-05-08T10:35:33;101245.81;;;20.65;59.62
36260;BME280;22296;50.824;5.644;2023-05-08T10:38:02;101245.66;;;20.61;59.82
36260;BME280;22296;50.824;5.644;2023-05-08T10:40:29;101248.84;;;20.60;59.78
36260;BME280;22296;50.824;5.644;2023-05-08T10:42:57;101240.06;;;20.61;60.02
36260;BME280;22296;50.824;5.644;2023-05-08T10:45:25;101237.97;;;20.58;59.73
36260;BME280;22296;50.824;5.644;2023-05-08T10:53:45;101233.06;;;20.55;59.76
36260;BME280;22296;50.824;5.644;2023-05-08T10:56:15;101229.09;;;20.56;59.77
36260;BME280;22296;50.824;5.644;2023-05-08T10:58:42;101225.84;;;20.54;60.12
36260;BME280;22296;50.824;5.644;2023-05-08T11:01:10;101228.63;;;20.54;59.86
36260;BME280;22296;50.824;5.644;2023-05-08T11:06:06;101227.94;;;20.57;59.75
36260;BME280;22296;50.824;5.644;2023-05-08T11:08:45;101224.66;;;20.55;59.68
36260;BME280;22296;50.824;5.644;2023-05-08T11:11:31;101225.00;;;20.54;59.80
36260;BME280;22296;50.824;5.644;2023-05-08T11:19:23;101212.66;;;20.55;59.70
36260;BME280;22296;50.824;5.644;2023-05-08T11:22:20;101220.69;;;20.56;59.80
36260;BME280;22296;50.824;5.644;2023-05-08T11:24:55;101204.69;;;20.57;59.66
36260;BME280;22296;50.824;5.644;2023-05-08T11:35:44;101204.00;;;20.60;59.58
36260;BME280;22296;50.824;5.644;2023-05-08T11:40:55;101199.22;;;20.60;59.71
36260;BME280;22296;50.824;5.644;2023-05-08T11:46:01;101196.06;;;20.62;59.58
36260;BME280;22296;50.824;5.644;2023-05-08T11:48:30;101198.03;;;20.61;59.81
36260;BME280;22296;50.824;5.644;2023-05-08T11:50:58;101196.50;;;20.64;59.48
36260;BME280;22296;50.824;5.644;2023-05-08T11:53:25;101192.44;;;20.61;59.63
36260;BME280;22296;50.824;5.644;2023-05-08T11:55:52;101188.09;;;20.64;59.59
36260;BME280;22296;50.824;5.644;2023-05-08T11:58:19;101189.75;;;20.65;59.56
36260;BME280;22296;50.824;5.644;2023-05-08T12:00:47;101190.13;;;20.63;59.59
36260;BME280;22296;50.824;5.644;2023-05-08T12:03:17;101191.41;;;20.66;59.49
36260;BME280;22296;50.824;5.644;2023-05-08T12:05:46;101177.84;;;20.68;59.39
36260;BME280;22296;50.824;5.644;2023-05-08T12:08:14;101187.06;;;20.68;59.38
36260;BME280;22296;50.824;5.644;2023-05-08T12:10:55;101176.31;;;20.70;59.21
36260;BME280;22296;50.824;5.644;2023-05-08T12:13:24;101172.34;;;20.71;59.23
36260;BME280;22296;50.824;5.644;2023-05-08T12:15:54;101170.00;;;20.73;59.33
36260;BME280;22296;50.824;5.644;2023-05-08T12:18:23;101169.19;;;20.73;59.28
36260;BME280;22296;50.824;5.644;2023-05-08T12:20:55;101167.66;;;20.75;59.43
36260;BME280;22296;50.824;5.644;2023-05-08T12:23:23;101162.75;;;20.72;59.23
36260;BME280;22296;50.824;5.644;2023-05-08T12:25:51;101165.69;;;20.76;59.23
36260;BME280;22296;50.824;5.644;2023-05-08T12:28:21;101164.63;;;20.80;59.21
36260;BME280;22296;50.824;5.644;2023-05-08T12:30:48;101160.91;;;20.76;59.13
36260;BME280;22296;50.824;5.644;2023-05-08T12:33:16;101162.28;;;20.82;59.41
36260;BME280;22296;50.824;5.644;2023-05-08T12:35:44;101163.81;;;20.80;59.11
36260;BME280;22296;50.824;5.644;2023-05-08T12:38:11;101152.25;;;20.81;58.97
36260;BME280;22296;50.824;5.644;2023-05-08T12:40:42;101159.03;;;20.80;59.09
36260;BME280;22296;50.824;5.644;2023-05-08T12:43:09;101155.97;;;20.85;59.04
36260;BME280;22296;50.824;5.644;2023-05-08T12:45:38;101153.63;;;20.87;58.89
36260;BME280;22296;50.824;5.644;2023-05-08T12:48:07;101146.63;;;20.93;58.81
36260;BME280;22296;50.824;5.644;2023-05-08T12:50:36;101141.94;;;20.97;58.58
36260;BME280;22296;50.824;5.644;2023-05-08T12:53:04;101141.25;;;21.00;59.31
36260;BME280;22296;50.824;5.644;2023-05-08T12:55:33;101125.78;;;21.19;59.06
36260;BME280;22296;50.824;5.644;2023-05-08T12:58:08;101124.63;;;21.20;59.18
36260;BME280;22296;50.824;5.644;2023-05-08T13:03:13;101126.00;;;21.26;59.01
36260;BME280;22296;50.824;5.644;2023-05-08T13:05:47;101124.59;;;21.32;58.71
36260;BME280;22296;50.824;5.644;2023-05-08T13:08:13;101116.63;;;21.34;58.76
36260;BME280;22296;50.824;5.644;2023-05-08T13:13:19;101123.94;;;21.38;58.56
36260;BME280;22296;50.824;5.644;2023-05-08T13:15:46;101117.56;;;21.38;58.48
36260;BME280;22296;50.824;5.644;2023-05-08T13:18:14;101117.72;;;21.45;58.66
36260;BME280;22296;50.824;5.644;2023-05-08T13:20:41;101117.84;;;21.48;58.40
36260;BME280;22296;50.824;5.644;2023-05-08T13:23:09;101116.09;;;21.44;58.48
36260;BME280;22296;50.824;5.644;2023-05-08T13:25:37;101114.47;;;21.43;58.13
36260;BME280;22296;50.824;5.644;2023-05-08T13:28:04;101108.03;;;21.42;58.29
36260;BME280;22296;50.824;5.644;2023-05-08T13:30:32;101115.19;;;21.40;58.08
36260;BME280;22296;50.824;5.644;2023-05-08T13:32:59;101113.78;;;21.46;58.10
36260;BME280;22296;50.824;5.644;2023-05-08T13:35:26;101105.41;;;21.34;58.27
36260;BME280;22296;50.824;5.644;2023-05-08T13:37:56;101108.75;;;21.39;58.11
36260;BME280;22296;50.824;5.644;2023-05-08T13:40:23;101098.81;;;21.42;58.14
36260;BME280;22296;50.824;5.644;2023-05-08T13:42:51;101095.75;;;21.47;57.94
36260;BME280;22296;50.824;5.644;2023-05-08T13:45:18;101085.50;;;21.39;57.98
36260;BME280;22296;50.824;5.644;2023-05-08T13:47:46;101080.44;;;21.44;58.05
36260;BME280;22296;50.824;5.644;2023-05-08T13:50:14;101087.97;;;21.40;58.21
36260;BME280;22296;50.824;5.644;2023-05-08T13:52:42;101087.13;;;21.40;58.17
36260;BME280;22296;50.824;5.644;2023-05-08T13:55:10;101078.28;;;21.38;58.13
36260;BME280;22296;50.824;5.644;2023-05-08T13:57:38;101089.56;;;21.41;57.98
36260;BME280;22296;50.824;5.644;2023-05-08T14:00:05;101087.59;;;21.42;57.99
36260;BME280;22296;50.824;5.644;2023-05-08T14:02:33;101088.75;;;21.41;58.21
36260;BME280;22296;50.824;5.644;2023-05-08T14:05:00;101087.97;;;21.40;58.19
36260;BME280;22296;50.824;5.644;2023-05-08T14:07:27;101079.06;;;21.38;58.31
36260;BME280;22296;50.824;5.644;2023-05-08T14:09:55;101083.97;;;21.41;58.06
36260;BME280;22296;50.824;5.644;2023-05-08T14:12:22;101078.72;;;21.40;58.15
36260;BME280;22296;50.824;5.644;2023-05-08T14:14:49;101083.13;;;21.41;58.40